sensor_id;sensor_type;location;lat;lon;timestamp;temperature;humidity
23291;DHT22;11814;44.686;10.842;2022-09-13T00:01:44;21.60;95.90
23291;DHT22;11814;44.686;10.842;2022-09-13T00:04:09;21.50;96.20
23291;DHT22;11814;44.686;10.842;2022-09-13T00:06:35;21.50;96.50
23291;DHT22;11814;44.686;10.842;2022-09-13T00:09:01;21.50;96.70
23291;DHT22;11814;44.686;10.842;2022-09-13T00:11:29;21.50;97.10
23291;DHT22;11814;44.686;10.842;2022-09-13T00:13:56;21.50;97.30
23291;DHT22;11814;44.686;10.842;2022-09-13T00:16:24;21.50;97.60
23291;DHT22;11814;44.686;10.842;2022-09-13T00:18:51;21.40;97.80
23291;DHT22;11814;44.686;10.842;2022-09-13T00:21:19;21.40;98.10
23291;DHT22;11814;44.686;10.842;2022-09-13T00:23:50;21.40;98.30
23291;DHT22;11814;44.686;10.842;2022-09-13T00:26:24;21.40;98.30
23291;DHT22;11814;44.686;10.842;2022-09-13T00:28:56;21.40;98.40
23291;DHT22;11814;44.686;10.842;2022-09-13T00:31:23;21.40;98.60
23291;DHT22;11814;44.686;10.842;2022-09-13T00:33:50;21.40;98.50
23291;DHT22;11814;44.686;10.842;2022-09-13T00:36:16;21.30;98.60
23291;DHT22;11814;44.686;10.842;2022-09-13T00:38:42;21.30;98.90
23291;DHT22;11814;44.686;10.842;2022-09-13T00:41:11;21.20;99.20
23291;DHT22;11814;44.686;10.842;2022-09-13T00:43:53;21.20;99.50
23291;DHT22;11814;44.686;10.842;2022-09-13T00:46:34;21.20;99.80
23291;DHT22;11814;44.686;10.842;2022-09-13T00:49:20;21.20;99.90
23291;DHT22;11814;44.686;10.842;2022-09-13T00:54:28;21.20;99.90
23291;DHT22;11814;44.686;10.842;2022-09-13T00:56:58;21.20;99.90
23291;DHT22;11814;44.686;10.842;2022-09-13T00:59:31;21.20;99.90
23291;DHT22;11814;44.686;10.842;2022-09-13T01:02:00;21.20;99.90
23291;DHT22;11814;44.686;10.842;2022-09-13T01:04:29;21.20;99.90
23291;DHT22;11814;44.686;10.842;2022-09-13T01:07:01;21.20;99.90
23291;DHT22;11814;44.686;10.842;2022-09-13T01:09:29;21.20;99.90
23291;DHT22;11814;44.686;10.842;2022-09-13T01:12:01;21.20;99.90
23291;DHT22;11814;44.686;10.842;2022-09-13T01:14:29;21.20;99.90
23291;DHT22;11814;44.686;10.842;2022-09-13T01:16:56;21.20;99.90
23291;DHT22;11814;44.686;10.842;2022-09-13T01:19:22;21.20;99.90
23291;DHT22;11814;44.686;10.842;2022-09-13T01:27:43;21.10;99.90
23291;DHT22;11814;44.686;10.842;2022-09-13T01:30:22;21.00;99.90
23291;DHT22;11814;44.686;10.842;2022-09-13T01:35:54;21.00;99.90
23291;DHT22;11814;44.686;10.842;2022-09-13T01:46:36;20.90;99.90
23291;DHT22;11814;44.686;10.842;2022-09-13T01:57:27;20.70;99.90
23291;DHT22;11814;44.686;10.842;2022-09-13T02:00:08;20.70;99.90
23291;DHT22;11814;44.686;10.842;2022-09-13T02:02:48;20.70;99.90
23291;DHT22;11814;44.686;10.842;2022-09-13T02:05:30;20.70;99.90
23291;DHT22;11814;44.686;10.842;2022-09-13T02:08:01;20.60;99.90
23291;DHT22;11814;44.686;10.842;2022-09-13T02:10:41;20.60;99.90
23291;DHT22;11814;44.686;10.842;2022-09-13T02:13:16;20.60;99.90
23291;DHT22;11814;44.686;10.842;2022-09-13T02:15:48;20.60;99.90
23291;DHT22;11814;44.686;10.842;2022-09-13T02:18:19;20.60;99.90
23291;DHT22;11814;44.686;10.842;2022-09-13T02:20:49;20.60;99.90
23291;DHT22;11814;44.686;10.842;2022-09-13T02:24:01;20.60;99.90
23291;DHT22;11814;44.686;10.842;2022-09-13T02:26:08;20.50;99.90
23291;DHT22;11814;44.686;10.842;2022-09-13T02:28:39;20.60;99.90
23291;DHT22;11814;44.686;10.842;2022-09-13T02:31:07;20.50;99.90
23291;DHT22;11814;44.686;10.842;2022-09-13T02:33:39;20.50;99.90
23291;DHT22;11814;44.686;10.842;2022-09-13T02:36:09;20.50;99.90
23291;DHT22;11814;44.686;10.842;2022-09-13T02:38:45;20.50;99.90
23291;DHT22;11814;44.686;10.842;2022-09-13T02:43:51;20.50;99.90
23291;DHT22;11814;44.686;10.842;2022-09-13T02:49:11;20.40;99.90
23291;DHT22;11814;44.686;10.842;2022-09-13T02:51:54;20.40;99.90
23291;DHT22;11814;44.686;10.842;2022-09-13T03:00:07;20.20;99.90
23291;DHT22;11814;44.686;10.842;2022-09-13T03:02:33;20.10;99.90
23291;DHT22;11814;44.686;10.842;2022-09-13T03:05:01;20.10;99.90
23291;DHT22;11814;44.686;10.842;2022-09-13T03:07:27;20.10;99.90
23291;DHT22;11814;44.686;10.842;2022-09-13T03:09:57;20.20;99.90
23291;DHT22;11814;44.686;10.842;2022-09-13T03:15:29;20.20;99.90
23291;DHT22;11814;44.686;10.842;2022-09-13T03:18:16;20.20;99.90
23291;DHT22;11814;44.686;10.842;2022-09-13T03:26:25;19.90;99.90
23291;DHT22;11814;44.686;10.842;2022-09-13T03:34:30;19.80;99.90
23291;DHT22;11814;44.686;10.842;2022-09-13T03:37:11;19.80;99.90
23291;DHT22;11814;44.686;10.842;2022-09-13T03:39:43;19.70;99.90
23291;DHT22;11814;44.686;10.842;2022-09-13T03:42:17;19.70;99.90
23291;DHT22;11814;44.686;10.842;2022-09-13T03:44:47;19.80;99.90
23291;DHT22;11814;44.686;10.842;2022-09-13T03:47:16;19.90;99.90
23291;DHT22;11814;44.686;10.842;2022-09-13T03:49:42;19.80;99.90
23291;DHT22;11814;44.686;10.842;2022-09-13T03:52:09;19.80;99.90
23291;DHT22;11814;44.686;10.842;2022-09-13T03:54:36;19.80;99.90
23291;DHT22;11814;44.686;10.842;2022-09-13T03:57:11;19.80;99.90
23291;DHT22;11814;44.686;10.842;2022-09-13T03:59:40;19.80;99.90
23291;DHT22;11814;44.686;10.842;2022-09-13T04:02:07;19.70;99.90
23291;DHT22;11814;44.686;10.842;2022-09-13T04:04:40;19.70;99.90
23291;DHT22;11814;44.686;10.842;2022-09-13T04:07:06;19.60;99.90
23291;DHT22;11814;44.686;10.842;2022-09-13T04:09:32;19.60;99.90
23291;DHT22;11814;44.686;10.842;2022-09-13T04:11:58;19.60;99.90
23291;DHT22;11814;44.686;10.842;2022-09-13T04:14:24;19.60;99.90
23291;DHT22;11814;44.686;10.842;2022-09-13T04:16:55;19.60;99.90
23291;DHT22;11814;44.686;10.842;2022-09-13T04:19:23;19.60;99.90
23291;DHT22;11814;44.686;10.842;2022-09-13T04:21:49;19.60;99.90
23291;DHT22;11814;44.686;10.842;2022-09-13T04:24:18;19.60;99.90
23291;DHT22;11814;44.686;10.842;2022-09-13T04:26:48;19.60;99.90
23291;DHT22;11814;44.686;10.842;2022-09-13T04:29:14;19.60;99.90
23291;DHT22;11814;44.686;10.842;2022-09-13T04:31:39;19.60;99.90
23291;DHT22;11814;44.686;10.842;2022-09-13T04:34:05;19.60;99.90
23291;DHT22;11814;44.686;10.842;2022-09-13T04:36:32;19.60;99.90
23291;DHT22;11814;44.686;10.842;2022-09-13T04:38:58;19.60;99.90
23291;DHT22;11814;44.686;10.842;2022-09-13T04:41:25;19.50;99.90
23291;DHT22;11814;44.686;10.842;2022-09-13T04:43:50;19.50;99.90
23291;DHT22;11814;44.686;10.842;2022-09-13T04:46:16;19.50;99.90
23291;DHT22;11814;44.686;10.842;2022-09-13T04:48:44;19.50;99.90
23291;DHT22;11814;44.686;10.842;2022-09-13T04:51:12;19.50;99.90
23291;DHT22;11814;44.686;10.842;2022-09-13T04:53:39;19.50;99.90
23291;DHT22;11814;44.686;10.842;2022-09-13T04:56:05;19.50;99.90
23291;DHT22;11814;44.686;10.842;2022-09-13T04:58:31;19.50;99.90
23291;DHT22;11814;44.686;10.842;2022-09-13T05:01:05;19.50;99.90
23291;DHT22;11814;44.686;10.842;2022-09-13T05:03:32;19.50;99.90
23291;DHT22;11814;44.686;10.842;2022-09-13T05:06:06;19.40;99.90
23291;DHT22;11814;44.686;10.842;2022-09-13T05:08:32;19.40;99.90
23291;DHT22;11814;44.686;10.842;2022-09-13T05:10:58;19.50;99.90
23291;DHT22;11814;44.686;10.842;2022-09-13T05:13:24;19.50;99.90
23291;DHT22;11814;44.686;10.842;2022-09-13T05:15:57;19.50;99.90
23291;DHT22;11814;44.686;10.842;2022-09-13T05:18:31;19.50;99.90
23291;DHT22;11814;44.686;10.842;2022-09-13T05:20:58;19.50;99.90
23291;DHT22;11814;44.686;10.842;2022-09-13T05:23:24;19.50;99.90
23291;DHT22;11814;44.686;10.842;2022-09-13T05:25:55;19.50;99.90
23291;DHT22;11814;44.686;10.842;2022-09-13T05:28:21;19.50;99.90
23291;DHT22;11814;44.686;10.842;2022-09-13T05:30:58;19.60;99.90
23291;DHT22;11814;44.686;10.842;2022-09-13T05:33:29;19.60;99.90
23291;DHT22;11814;44.686;10.842;2022-09-13T05:35:56;19.70;99.90
23291;DHT22;11814;44.686;10.842;2022-09-13T05:38:22;19.70;99.90
23291;DHT22;11814;44.686;10.842;2022-09-13T05:40:52;19.80;99.90
23291;DHT22;11814;44.686;10.842;2022-09-13T05:43:19;19.90;99.90
23291;DHT22;11814;44.686;10.842;2022-09-13T05:45:44;19.90;99.90
23291;DHT22;11814;44.686;10.842;2022-09-13T05:48:10;20.00;99.90
23291;DHT22;11814;44.686;10.842;2022-09-13T05:50:36;20.00;99.90
23291;DHT22;11814;44.686;10.842;2022-09-13T05:53:03;20.10;99.90
23291;DHT22;11814;44.686;10.842;2022-09-13T05:55:28;20.20;99.90
23291;DHT22;11814;44.686;10.842;2022-09-13T05:57:55;20.30;99.90
23291;DHT22;11814;44.686;10.842;2022-09-13T06:00:21;20.40;99.90
23291;DHT22;11814;44.686;10.842;2022-09-13T06:02:46;20.50;99.90
23291;DHT22;11814;44.686;10.842;2022-09-13T06:05:12;20.60;99.90
23291;DHT22;11814;44.686;10.842;2022-09-13T06:07:40;20.60;99.90
23291;DHT22;11814;44.686;10.842;2022-09-13T06:10:09;20.80;99.90
23291;DHT22;11814;44.686;10.842;2022-09-13T06:12:36;20.90;99.90
23291;DHT22;11814;44.686;10.842;2022-09-13T06:15:02;20.90;99.90
23291;DHT22;11814;44.686;10.842;2022-09-13T06:17:27;21.00;99.90
23291;DHT22;11814;44.686;10.842;2022-09-13T06:19:53;21.10;99.90
23291;DHT22;11814;44.686;10.842;2022-09-13T06:22:19;21.30;99.90
23291;DHT22;11814;44.686;10.842;2022-09-13T06:24:44;21.50;99.90
23291;DHT22;11814;44.686;10.842;2022-09-13T06:27:10;21.70;99.90
23291;DHT22;11814;44.686;10.842;2022-09-13T06:29:36;21.90;99.90
23291;DHT22;11814;44.686;10.842;2022-09-13T06:32:02;22.00;99.90
23291;DHT22;11814;44.686;10.842;2022-09-13T06:34:28;22.40;99.90
23291;DHT22;11814;44.686;10.842;2022-09-13T06:36:54;22.70;99.90
23291;DHT22;11814;44.686;10.842;2022-09-13T06:39:19;22.90;99.90
23291;DHT22;11814;44.686;10.842;2022-09-13T06:41:45;23.00;99.90
23291;DHT22;11814;44.686;10.842;2022-09-13T06:44:11;23.10;99.80
23291;DHT22;11814;44.686;10.842;2022-09-13T06:46:37;23.10;99.60
23291;DHT22;11814;44.686;10.842;2022-09-13T06:49:05;23.10;99.70
23291;DHT22;11814;44.686;10.842;2022-09-13T06:51:32;23.20;99.70
23291;DHT22;11814;44.686;10.842;2022-09-13T06:53:58;23.30;99.10
23291;DHT22;11814;44.686;10.842;2022-09-13T06:56:30;23.40;97.80
23291;DHT22;11814;44.686;10.842;2022-09-13T06:59:01;23.50;96.50
23291;DHT22;11814;44.686;10.842;2022-09-13T07:01:31;23.60;95.90
23291;DHT22;11814;44.686;10.842;2022-09-13T07:04:03;23.60;95.40
23291;DHT22;11814;44.686;10.842;2022-09-13T07:06:31;23.60;95.00
23291;DHT22;11814;44.686;10.842;2022-09-13T07:08:59;23.60;94.80
23291;DHT22;11814;44.686;10.842;2022-09-13T07:11:28;23.70;94.50
23291;DHT22;11814;44.686;10.842;2022-09-13T07:13:56;23.60;94.20
23291;DHT22;11814;44.686;10.842;2022-09-13T07:16:29;23.70;94.10
23291;DHT22;11814;44.686;10.842;2022-09-13T07:18:59;23.70;93.80
23291;DHT22;11814;44.686;10.842;2022-09-13T07:21:26;23.90;93.80
23291;DHT22;11814;44.686;10.842;2022-09-13T07:23:54;24.00;93.50
23291;DHT22;11814;44.686;10.842;2022-09-13T07:26:20;24.20;93.20
23291;DHT22;11814;44.686;10.842;2022-09-13T07:28:48;24.50;93.20
23291;DHT22;11814;44.686;10.842;2022-09-13T07:31:19;25.00;92.50
23291;DHT22;11814;44.686;10.842;2022-09-13T07:33:46;25.40;91.70
23291;DHT22;11814;44.686;10.842;2022-09-13T07:36:13;25.90;90.50
23291;DHT22;11814;44.686;10.842;2022-09-13T07:38:42;26.10;89.10
23291;DHT22;11814;44.686;10.842;2022-09-13T07:41:13;26.20;87.10
23291;DHT22;11814;44.686;10.842;2022-09-13T07:43:39;26.10;86.10
23291;DHT22;11814;44.686;10.842;2022-09-13T07:46:10;26.00;85.90
23291;DHT22;11814;44.686;10.842;2022-09-13T07:48:38;26.00;86.10
23291;DHT22;11814;44.686;10.842;2022-09-13T07:51:08;26.10;86.20
23291;DHT22;11814;44.686;10.842;2022-09-13T07:53:35;26.40;85.70
23291;DHT22;11814;44.686;10.842;2022-09-13T07:56:10;26.60;85.10
23291;DHT22;11814;44.686;10.842;2022-09-13T07:58:37;26.80;84.00
23291;DHT22;11814;44.686;10.842;2022-09-13T08:01:09;26.80;82.80
23291;DHT22;11814;44.686;10.842;2022-09-13T08:03:35;26.70;82.20
23291;DHT22;11814;44.686;10.842;2022-09-13T08:06:02;26.80;82.40
23291;DHT22;11814;44.686;10.842;2022-09-13T08:08:29;26.90;81.80
23291;DHT22;11814;44.686;10.842;2022-09-13T08:10:55;26.90;80.70
23291;DHT22;11814;44.686;10.842;2022-09-13T08:13:22;26.80;80.20
23291;DHT22;11814;44.686;10.842;2022-09-13T08:15:48;26.70;80.10
23291;DHT22;11814;44.686;10.842;2022-09-13T08:18:17;26.60;80.30
23291;DHT22;11814;44.686;10.842;2022-09-13T08:20:44;26.70;80.80
23291;DHT22;11814;44.686;10.842;2022-09-13T08:23:10;26.90;80.70
23291;DHT22;11814;44.686;10.842;2022-09-13T08:25:37;27.00;80.30
23291;DHT22;11814;44.686;10.842;2022-09-13T08:28:08;26.90;79.60
23291;DHT22;11814;44.686;10.842;2022-09-13T08:30:34;27.00;79.40
23291;DHT22;11814;44.686;10.842;2022-09-13T08:33:03;27.00;79.10
23291;DHT22;11814;44.686;10.842;2022-09-13T08:35:29;27.10;78.80
23291;DHT22;11814;44.686;10.842;2022-09-13T08:37:56;27.20;78.50
23291;DHT22;11814;44.686;10.842;2022-09-13T08:40:23;27.20;78.10
23291;DHT22;11814;44.686;10.842;2022-09-13T08:45:23;27.20;77.70
23291;DHT22;11814;44.686;10.842;2022-09-13T08:47:52;27.10;77.60
23291;DHT22;11814;44.686;10.842;2022-09-13T08:50:29;27.10;77.60
23291;DHT22;11814;44.686;10.842;2022-09-13T08:53:11;27.10;77.90
23291;DHT22;11814;44.686;10.842;2022-09-13T09:01:07;27.20;77.60
23291;DHT22;11814;44.686;10.842;2022-09-13T09:06:01;27.30;77.20
23291;DHT22;11814;44.686;10.842;2022-09-13T09:08:48;27.30;76.90
23291;DHT22;11814;44.686;10.842;2022-09-13T09:11:53;27.30;76.70
23291;DHT22;11814;44.686;10.842;2022-09-13T09:14:32;27.40;77.00
23291;DHT22;11814;44.686;10.842;2022-09-13T09:17:11;27.50;77.00
23291;DHT22;11814;44.686;10.842;2022-09-13T09:22:48;27.60;76.70
23291;DHT22;11814;44.686;10.842;2022-09-13T09:25:15;27.80;76.50
23291;DHT22;11814;44.686;10.842;2022-09-13T09:27:41;27.80;76.20
23291;DHT22;11814;44.686;10.842;2022-09-13T09:30:12;27.80;76.00
23291;DHT22;11814;44.686;10.842;2022-09-13T09:36:15;27.80;75.50
23291;DHT22;11814;44.686;10.842;2022-09-13T09:38:46;27.90;75.50
23291;DHT22;11814;44.686;10.842;2022-09-13T09:41:26;27.90;75.20
23291;DHT22;11814;44.686;10.842;2022-09-13T09:46:25;27.90;74.80
23291;DHT22;11814;44.686;10.842;2022-09-13T09:48:55;27.90;74.70
23291;DHT22;11814;44.686;10.842;2022-09-13T09:51:23;28.00;74.60
23291;DHT22;11814;44.686;10.842;2022-09-13T09:53:56;28.10;74.60
23291;DHT22;11814;44.686;10.842;2022-09-13T09:56:32;28.10;74.20
23291;DHT22;11814;44.686;10.842;2022-09-13T09:58:59;28.10;74.30
23291;DHT22;11814;44.686;10.842;2022-09-13T10:01:33;28.20;73.90
23291;DHT22;11814;44.686;10.842;2022-09-13T10:06:28;28.30;73.10
23291;DHT22;11814;44.686;10.842;2022-09-13T10:09:05;28.40;72.80
23291;DHT22;11814;44.686;10.842;2022-09-13T10:11:52;28.40;72.70
23291;DHT22;11814;44.686;10.842;2022-09-13T10:14:34;28.60;72.30
23291;DHT22;11814;44.686;10.842;2022-09-13T10:17:04;28.60;71.80
23291;DHT22;11814;44.686;10.842;2022-09-13T10:19:31;28.70;71.60
23291;DHT22;11814;44.686;10.842;2022-09-13T10:22:05;28.80;71.20
23291;DHT22;11814;44.686;10.842;2022-09-13T10:24:34;28.80;70.80
23291;DHT22;11814;44.686;10.842;2022-09-13T10:27:01;28.80;70.60
23291;DHT22;11814;44.686;10.842;2022-09-13T10:29:29;28.80;70.10
23291;DHT22;11814;44.686;10.842;2022-09-13T10:31:56;28.90;70.10
23291;DHT22;11814;44.686;10.842;2022-09-13T10:34:31;29.00;70.10
23291;DHT22;11814;44.686;10.842;2022-09-13T10:39:25;29.10;69.20
23291;DHT22;11814;44.686;10.842;2022-09-13T10:41:56;29.00;68.60
23291;DHT22;11814;44.686;10.842;2022-09-13T10:47:13;29.10;68.20
23291;DHT22;11814;44.686;10.842;2022-09-13T10:49:49;29.20;68.10
23291;DHT22;11814;44.686;10.842;2022-09-13T10:52:32;29.30;67.40
23291;DHT22;11814;44.686;10.842;2022-09-13T10:57:46;29.30;66.80
23291;DHT22;11814;44.686;10.842;2022-09-13T11:00:15;29.40;66.70
23291;DHT22;11814;44.686;10.842;2022-09-13T11:08:15;29.50;66.60
23291;DHT22;11814;44.686;10.842;2022-09-13T11:22:23;29.70;66.70
23291;DHT22;11814;44.686;10.842;2022-09-13T11:25:20;29.70;66.20
23291;DHT22;11814;44.686;10.842;2022-09-13T11:33:47;29.80;65.40
23291;DHT22;11814;44.686;10.842;2022-09-13T11:39:18;29.80;65.10
23291;DHT22;11814;44.686;10.842;2022-09-13T11:52:45;30.00;64.40
23291;DHT22;11814;44.686;10.842;2022-09-13T11:55:50;30.10;63.80
23291;DHT22;11814;44.686;10.842;2022-09-13T11:58:28;30.20;63.60
23291;DHT22;11814;44.686;10.842;2022-09-13T12:01:02;30.10;63.20
23291;DHT22;11814;44.686;10.842;2022-09-13T12:03:55;30.10;63.10
23291;DHT22;11814;44.686;10.842;2022-09-13T12:06:36;30.20;62.80
23291;DHT22;11814;44.686;10.842;2022-09-13T12:09:19;30.20;62.90
23291;DHT22;11814;44.686;10.842;2022-09-13T12:11:52;30.20;63.00
23291;DHT22;11814;44.686;10.842;2022-09-13T12:14:21;30.30;63.20
23291;DHT22;11814;44.686;10.842;2022-09-13T12:16:53;30.30;63.20
23291;DHT22;11814;44.686;10.842;2022-09-13T12:19:24;30.30;63.20
23291;DHT22;11814;44.686;10.842;2022-09-13T12:21:52;30.30;63.20
23291;DHT22;11814;44.686;10.842;2022-09-13T12:24:31;30.40;63.10
23291;DHT22;11814;44.686;10.842;2022-09-13T12:27:04;30.30;62.70
23291;DHT22;11814;44.686;10.842;2022-09-13T12:32:07;30.30;62.30
23291;DHT22;11814;44.686;10.842;2022-09-13T13:00:28;30.40;62.40
23291;DHT22;11814;44.686;10.842;2022-09-13T13:03:14;30.40;62.10
23291;DHT22;11814;44.686;10.842;2022-09-13T13:05:49;30.50;62.30
23291;DHT22;11814;44.686;10.842;2022-09-13T13:13:56;30.50;61.50
23291;DHT22;11814;44.686;10.842;2022-09-13T13:16:34;30.50;61.30
23291;DHT22;11814;44.686;10.842;2022-09-13T13:19:31;30.50;61.30
23291;DHT22;11814;44.686;10.842;2022-09-13T13:25:36;30.50;61.00
23291;DHT22;11814;44.686;10.842;2022-09-13T13:36:46;30.40;60.90
23291;DHT22;11814;44.686;10.842;2022-09-13T13:41:59;30.50;61.00
23291;DHT22;11814;44.686;10.842;2022-09-13T13:57:33;30.50;61.20
23291;DHT22;11814;44.686;10.842;2022-09-13T14:00:24;30.60;60.80
23291;DHT22;11814;44.686;10.842;2022-09-13T14:16:59;30.70;60.50
23291;DHT22;11814;44.686;10.842;2022-09-13T14:19:40;30.70;60.80
23291;DHT22;11814;44.686;10.842;2022-09-13T14:22:17;30.70;61.00
23291;DHT22;11814;44.686;10.842;2022-09-13T14:24:48;30.70;60.90
23291;DHT22;11814;44.686;10.842;2022-09-13T14:27:29;30.80;60.90
23291;DHT22;11814;44.686;10.842;2022-09-13T14:29:58;30.80;60.40
23291;DHT22;11814;44.686;10.842;2022-09-13T14:32:29;30.70;60.40
23291;DHT22;11814;44.686;10.842;2022-09-13T14:35:00;30.80;60.40
23291;DHT22;11814;44.686;10.842;2022-09-13T14:37:29;30.80;60.40
23291;DHT22;11814;44.686;10.842;2022-09-13T14:40:01;30.80;60.40
23291;DHT22;11814;44.686;10.842;2022-09-13T14:42:39;30.80;60.20
23291;DHT22;11814;44.686;10.842;2022-09-13T14:48:23;30.90;59.90
23291;DHT22;11814;44.686;10.842;2022-09-13T14:50:58;30.90;59.60
23291;DHT22;11814;44.686;10.842;2022-09-13T14:53:28;31.00;59.70
23291;DHT22;11814;44.686;10.842;2022-09-13T14:56:03;30.90;60.20
23291;DHT22;11814;44.686;10.842;2022-09-13T14:58:55;30.90;59.60
23291;DHT22;11814;44.686;10.842;2022-09-13T15:01:30;30.90;60.00
23291;DHT22;11814;44.686;10.842;2022-09-13T15:03:59;30.90;60.10
23291;DHT22;11814;44.686;10.842;2022-09-13T15:06:29;30.90;60.10
23291;DHT22;11814;44.686;10.842;2022-09-13T15:08:59;30.90;60.90
23291;DHT22;11814;44.686;10.842;2022-09-13T15:11:38;30.90;60.70
23291;DHT22;11814;44.686;10.842;2022-09-13T15:16:52;30.70;61.20
23291;DHT22;11814;44.686;10.842;2022-09-13T15:21:49;30.50;61.60
23291;DHT22;11814;44.686;10.842;2022-09-13T15:24:23;30.40;61.80
23291;DHT22;11814;44.686;10.842;2022-09-13T15:27:04;30.30;61.90
23291;DHT22;11814;44.686;10.842;2022-09-13T15:29:30;30.20;62.00
23291;DHT22;11814;44.686;10.842;2022-09-13T15:32:01;30.10;62.20
23291;DHT22;11814;44.686;10.842;2022-09-13T15:34:27;30.10;62.60
23291;DHT22;11814;44.686;10.842;2022-09-13T15:39:41;30.00;62.80
23291;DHT22;11814;44.686;10.842;2022-09-13T15:42:07;29.90;62.80
23291;DHT22;11814;44.686;10.842;2022-09-13T15:44:33;29.90;62.80
23291;DHT22;11814;44.686;10.842;2022-09-13T15:47:01;29.90;63.00
23291;DHT22;11814;44.686;10.842;2022-09-13T15:49:30;29.80;63.10
23291;DHT22;11814;44.686;10.842;2022-09-13T15:51:58;29.80;63.20
23291;DHT22;11814;44.686;10.842;2022-09-13T15:54:30;29.80;63.70
23291;DHT22;11814;44.686;10.842;2022-09-13T15:56:57;29.80;64.00
23291;DHT22;11814;44.686;10.842;2022-09-13T15:59:23;29.70;64.00
23291;DHT22;11814;44.686;10.842;2022-09-13T16:01:50;29.70;64.10
23291;DHT22;11814;44.686;10.842;2022-09-13T16:04:17;29.70;64.50
23291;DHT22;11814;44.686;10.842;2022-09-13T16:06:43;29.60;64.70
23291;DHT22;11814;44.686;10.842;2022-09-13T16:11:45;29.60;65.10
23291;DHT22;11814;44.686;10.842;2022-09-13T16:14:11;29.50;65.20
23291;DHT22;11814;44.686;10.842;2022-09-13T16:16:37;29.50;65.10
23291;DHT22;11814;44.686;10.842;2022-09-13T16:19:03;29.40;65.20
23291;DHT22;11814;44.686;10.842;2022-09-13T16:21:29;29.40;65.30
23291;DHT22;11814;44.686;10.842;2022-09-13T16:23:54;29.40;65.50
23291;DHT22;11814;44.686;10.842;2022-09-13T16:26:20;29.30;65.70
23291;DHT22;11814;44.686;10.842;2022-09-13T16:28:46;29.30;66.00
23291;DHT22;11814;44.686;10.842;2022-09-13T16:31:12;29.20;66.30
23291;DHT22;11814;44.686;10.842;2022-09-13T16:33:41;29.10;67.20
23291;DHT22;11814;44.686;10.842;2022-09-13T16:36:10;29.10;66.70
23291;DHT22;11814;44.686;10.842;2022-09-13T16:38:36;29.00;66.80
23291;DHT22;11814;44.686;10.842;2022-09-13T16:41:05;29.00;67.10
23291;DHT22;11814;44.686;10.842;2022-09-13T16:43:31;28.90;68.20
23291;DHT22;11814;44.686;10.842;2022-09-13T16:45:58;28.90;67.90
23291;DHT22;11814;44.686;10.842;2022-09-13T16:48:24;28.90;68.40
23291;DHT22;11814;44.686;10.842;2022-09-13T16:50:50;28.80;68.60
23291;DHT22;11814;44.686;10.842;2022-09-13T16:53:17;28.80;68.60
23291;DHT22;11814;44.686;10.842;2022-09-13T16:55:43;28.70;68.70
23291;DHT22;11814;44.686;10.842;2022-09-13T16:58:10;28.70;69.20
23291;DHT22;11814;44.686;10.842;2022-09-13T17:00:36;28.60;69.70
23291;DHT22;11814;44.686;10.842;2022-09-13T17:03:02;28.60;69.90
23291;DHT22;11814;44.686;10.842;2022-09-13T17:05:28;28.50;70.10
23291;DHT22;11814;44.686;10.842;2022-09-13T17:07:53;28.50;70.30
23291;DHT22;11814;44.686;10.842;2022-09-13T17:10:19;28.40;70.40
23291;DHT22;11814;44.686;10.842;2022-09-13T17:12:45;28.40;70.50
23291;DHT22;11814;44.686;10.842;2022-09-13T17:15:11;28.40;70.50
23291;DHT22;11814;44.686;10.842;2022-09-13T17:17:37;28.30;70.40
23291;DHT22;11814;44.686;10.842;2022-09-13T17:20:05;28.30;70.40
23291;DHT22;11814;44.686;10.842;2022-09-13T17:22:35;28.30;70.40
23291;DHT22;11814;44.686;10.842;2022-09-13T17:25:02;28.20;70.50
23291;DHT22;11814;44.686;10.842;2022-09-13T17:27:27;28.20;70.70
23291;DHT22;11814;44.686;10.842;2022-09-13T17:29:53;28.20;70.90
23291;DHT22;11814;44.686;10.842;2022-09-13T17:32:19;28.10;71.00
23291;DHT22;11814;44.686;10.842;2022-09-13T17:34:45;28.00;71.20
23291;DHT22;11814;44.686;10.842;2022-09-13T17:37:10;28.00;71.40
23291;DHT22;11814;44.686;10.842;2022-09-13T17:39:36;27.90;71.50
23291;DHT22;11814;44.686;10.842;2022-09-13T17:42:02;27.90;71.60
23291;DHT22;11814;44.686;10.842;2022-09-13T17:44:28;27.90;71.50
23291;DHT22;11814;44.686;10.842;2022-09-13T17:46:53;27.80;71.50
23291;DHT22;11814;44.686;10.842;2022-09-13T17:49:19;27.80;71.60
23291;DHT22;11814;44.686;10.842;2022-09-13T17:51:45;27.70;71.60
23291;DHT22;11814;44.686;10.842;2022-09-13T17:54:11;27.70;71.80
23291;DHT22;11814;44.686;10.842;2022-09-13T17:56:40;27.70;71.80
23291;DHT22;11814;44.686;10.842;2022-09-13T17:59:12;27.60;72.00
23291;DHT22;11814;44.686;10.842;2022-09-13T18:01:43;27.60;72.20
23291;DHT22;11814;44.686;10.842;2022-09-13T18:04:10;27.60;72.40
23291;DHT22;11814;44.686;10.842;2022-09-13T18:06:37;27.50;72.40
23291;DHT22;11814;44.686;10.842;2022-09-13T18:09:07;27.50;72.50
23291;DHT22;11814;44.686;10.842;2022-09-13T18:11:33;27.40;72.50
23291;DHT22;11814;44.686;10.842;2022-09-13T18:13:59;27.30;72.40
23291;DHT22;11814;44.686;10.842;2022-09-13T18:16:26;27.30;72.60
23291;DHT22;11814;44.686;10.842;2022-09-13T18:18:52;27.30;72.80
23291;DHT22;11814;44.686;10.842;2022-09-13T18:21:21;27.30;72.80
23291;DHT22;11814;44.686;10.842;2022-09-13T18:23:48;27.20;72.90
23291;DHT22;11814;44.686;10.842;2022-09-13T18:26:25;27.20;73.10
23291;DHT22;11814;44.686;10.842;2022-09-13T18:28:57;27.20;73.20
23291;DHT22;11814;44.686;10.842;2022-09-13T18:31:26;27.10;73.40
23291;DHT22;11814;44.686;10.842;2022-09-13T18:33:57;27.10;73.50
23291;DHT22;11814;44.686;10.842;2022-09-13T18:36:24;27.10;73.60
23291;DHT22;11814;44.686;10.842;2022-09-13T18:38:50;27.00;73.60
23291;DHT22;11814;44.686;10.842;2022-09-13T18:41:24;27.00;73.70
23291;DHT22;11814;44.686;10.842;2022-09-13T18:43:52;27.00;73.80
23291;DHT22;11814;44.686;10.842;2022-09-13T18:46:20;26.90;73.90
23291;DHT22;11814;44.686;10.842;2022-09-13T18:48:49;26.90;73.90
23291;DHT22;11814;44.686;10.842;2022-09-13T18:51:23;26.90;74.00
23291;DHT22;11814;44.686;10.842;2022-09-13T18:53:50;26.90;74.10
23291;DHT22;11814;44.686;10.842;2022-09-13T18:56:18;26.80;74.20
23291;DHT22;11814;44.686;10.842;2022-09-13T18:58:44;26.80;74.20
23291;DHT22;11814;44.686;10.842;2022-09-13T19:01:13;26.70;75.10
23291;DHT22;11814;44.686;10.842;2022-09-13T19:06:16;26.60;74.70